If you wish to contribute or participate in the discussions about articles you are invited to join SKYbrary as a registered user

 Actions

Freetown/Lungi Airport

From SKYbrary Wiki

GFLL
Airport
ICAO: GFLL – IATA: FNA
Summary
Name Freetown/Lungi Airport
Region Africa
Territory Sierra Leone SL.gif
Location Lungi, Sierra Leone
Serving Freetown
Elevation 25.603 m
84 ft25.603 m
Coordinates 8° 36' 59.00" N, 13° 11' 44.00" W
Runways
Designator Length Width Surface ROPS
12/30 3200 m10,498.688 ft
46 m150.919 ft
ASP yes/yes


METAR
Observation GFLL 200100Z 28004KT 9999 SCT012 FEW027CB 28/22 Q1014 RMK CB-NE
Station Lungi
Date/Time 20 June 2019 01:00:00
Wind direction 280°
Wind speed 04 kts
Lowest cloud amount scattered clouds
Temperature 28°C
Dew point 22°C
Humidity 69%
QNH 1014 hPa
Weather condition n/a

International airport serving the city of Freetown, Sierra Leone.

Climatology

Tropical Monsoon climate (Köppen climate classification Am) - monthly mean temperatures above 18°C64.4 °F
291.15 K
524.07 °R
in every month of the year and features wet and dry seasons. A tropical monsoon climate typically features less pronounced dry seasons than a tropical savanna climate and see less variance in temperatures during the course of the year. The driest month nearly always occurs at or soon after the "winter" solstice.

Maps

Terrain

Loading map...

Airport Layout

Loading map...


Accidents & Serious Incidents at or in vicinity of GFLL

None on SKYbrary